DTTA/TUN METAR and TAF weather

Enter ICAO airport designator
Station Type Date Time Source
DTTA METAR 2019/08/24 20:00 UTC NOAA

DTTA 242000Z 33002KT 9999 SCT030 26/22 Q1015


Station Type Date Time Source
DTTA Decoded METAR 2019/08/24 20:00 UTC NOAA

Station name not available
Aug 24, 2019 - 04:00 PM EDT / 2019.08.24 2000 UTC
Wind: from the NNW (330 degrees) at 2 MPH (2 KT):0
Visibility: greater than 7 mile(s):0
Sky conditions: partly cloudy
Temperature: 78 F (26 C)
Dew Point: 71 F (22 C)
Relative Humidity: 78%
Pressure (altimeter): 29.97 in. Hg (1015 hPa)
ob: DTTA 242000Z 33002KT 9999 SCT030 26/22 Q1015
cycle: 20

Station Type Date Time Source
DTTA TAF 2019/08/24 18:55 UTC NOAA

TAF DTTA 241700Z 2418/2518 04010KT 9999 SCT030 PROB30
TEMPO 2420/2424 -TSRA SCT016TCU
BECMG 2420/2422 35002KT PROB40 T MYO 2510/2518 -TSRA FEW026CB

Example: see airport list